createdAt,value
2022-11-28T00:01:42.978Z,82.65
2022-11-28T00:04:11.848Z,82.74
2022-11-28T00:06:45.264Z,82.55
2022-11-28T00:09:14.442Z,82.64
2022-11-28T00:11:44.414Z,82.88
2022-11-28T00:14:12.784Z,83.27
2022-11-28T00:16:40.705Z,83.07
2022-11-28T00:19:09.270Z,83.10
2022-11-28T00:21:36.976Z,83.05
2022-11-28T00:24:04.937Z,83.31
2022-11-28T00:26:36.199Z,82.98
2022-11-28T00:29:06.226Z,83.26
2022-11-28T00:31:42.038Z,84.55
2022-11-28T00:34:12.511Z,84.75
2022-11-28T00:36:40.621Z,87.03
2022-11-28T00:39:08.356Z,87.66
2022-11-28T00:41:36.113Z,88.55
2022-11-28T00:44:04.323Z,88.44
2022-11-28T00:46:32.017Z,87.21
2022-11-28T00:49:00.134Z,86.59
2022-11-28T00:51:30.885Z,86.17
2022-11-28T00:54:01.033Z,85.87
2022-11-28T00:56:32.416Z,85.57
2022-11-28T00:59:00.656Z,85.97
2022-11-28T01:01:33.616Z,86.09
2022-11-28T01:04:03.768Z,85.42
2022-11-28T01:06:35.370Z,85.51
2022-11-28T01:09:07.278Z,85.36
2022-11-28T01:11:35.627Z,85.24
2022-11-28T01:14:03.802Z,85.00
2022-11-28T01:16:31.767Z,84.85
2022-11-28T01:18:59.629Z,84.83
2022-11-28T01:21:27.948Z,84.95
2022-11-28T01:23:55.952Z,84.76
2022-11-28T01:26:27.184Z,84.98
2022-11-28T01:28:55.929Z,84.96
2022-11-28T01:31:26.964Z,84.85
2022-11-28T01:33:58.802Z,85.03
2022-11-28T01:36:27.281Z,84.75
2022-11-28T01:38:55.387Z,86.00
2022-11-28T01:41:27.602Z,86.94
2022-11-28T01:44:31.722Z,87.75
2022-11-28T01:46:59.502Z,87.74
2022-11-28T01:49:34.737Z,87.59
2022-11-28T01:52:08.178Z,87.57
2022-11-28T01:54:37.689Z,86.70
2022-11-28T01:57:09.522Z,86.50
2022-11-28T01:59:41.819Z,86.24
2022-11-28T02:02:18.164Z,86.18
2022-11-28T02:04:46.812Z,86.07
2022-11-28T02:07:14.940Z,85.72
2022-11-28T02:09:42.780Z,85.69
2022-11-28T02:12:27.976Z,85.75
2022-11-28T02:15:11.888Z,85.39
2022-11-28T02:18:01.512Z,85.28
2022-11-28T02:21:04.023Z,85.24
2022-11-28T02:23:54.141Z,85.25
2022-11-28T02:26:54.412Z,85.55
2022-11-28T02:29:48.719Z,86.43
2022-11-28T02:32:26.631Z,85.98
2022-11-28T02:35:04.485Z,85.62
2022-11-28T02:37:46.861Z,86.06
2022-11-28T02:40:25.047Z,86.05
2022-11-28T02:43:08.319Z,85.79
2022-11-28T02:45:46.934Z,85.53
2022-11-28T02:48:31.689Z,85.24
2022-11-28T02:51:08.948Z,85.18
2022-11-28T02:53:37.804Z,85.09
2022-11-28T02:56:05.972Z,84.87
2022-11-28T02:58:33.657Z,84.82
2022-11-28T03:01:01.599Z,84.60
2022-11-28T03:03:55.927Z,84.52
2022-11-28T03:06:37.597Z,84.75
2022-11-28T03:09:34.375Z,84.66
2022-11-28T03:12:37.161Z,84.65
2022-11-28T03:15:07.708Z,85.27
2022-11-28T03:17:54.810Z,85.51
2022-11-28T03:20:31.569Z,86.53
2022-11-28T03:23:17.807Z,87.21
2022-11-28T03:25:57.677Z,88.01
2022-11-28T03:28:38.108Z,88.16
2022-11-28T03:31:13.920Z,88.10
2022-11-28T03:33:49.014Z,88.08
2022-11-28T03:36:22.157Z,88.69
2022-11-28T03:38:56.748Z,89.28
2022-11-28T03:41:34.368Z,89.33
2022-11-28T03:44:05.301Z,89.64
2022-11-28T03:46:41.651Z,89.73
2022-11-28T03:49:11.763Z,89.39
2022-11-28T03:51:46.762Z,89.10
2022-11-28T03:54:23.090Z,89.26
2022-11-28T03:57:04.746Z,88.82
2022-11-28T03:59:51.073Z,88.32
2022-11-28T04:02:41.566Z,88.14
2022-11-28T04:05:34.466Z,87.46
2022-11-28T04:08:21.835Z,87.11
2022-11-28T04:11:02.113Z,86.99
2022-11-28T04:13:39.960Z,86.53
2022-11-28T04:16:19.127Z,86.59
2022-11-28T04:19:02.005Z,86.35
2022-11-28T04:21:35.876Z,86.14
2022-11-28T04:24:09.583Z,86.16
2022-11-28T04:26:45.433Z,85.96
2022-11-28T04:29:17.277Z,85.77
2022-11-28T04:31:46.484Z,86.02
2022-11-28T04:34:18.143Z,85.94
2022-11-28T04:36:48.074Z,86.26
2022-11-28T04:39:20.027Z,86.20
2022-11-28T04:41:53.627Z,86.01
2022-11-28T04:44:29.746Z,85.94
2022-11-28T04:46:58.393Z,86.15
2022-11-28T04:49:28.337Z,85.95
2022-11-28T04:52:08.493Z,85.99
2022-11-28T04:55:05.253Z,86.06
2022-11-28T04:57:37.573Z,86.01
2022-11-28T05:00:09.284Z,85.82
2022-11-28T05:02:39.139Z,85.75
2022-11-28T05:05:11.425Z,86.19
2022-11-28T05:07:39.370Z,86.02
2022-11-28T05:10:07.864Z,87.07
2022-11-28T05:12:35.747Z,86.68
2022-11-28T05:15:04.597Z,86.63
2022-11-28T05:17:32.331Z,86.37
2022-11-28T05:20:00.170Z,86.43
2022-11-28T05:22:28.041Z,86.30
2022-11-28T05:24:55.703Z,87.51
2022-11-28T05:27:23.451Z,86.76
2022-11-28T05:29:53.250Z,86.63
2022-11-28T05:32:21.218Z,86.72
2022-11-28T05:34:49.542Z,86.80
2022-11-28T05:37:17.428Z,86.61
2022-11-28T05:39:45.455Z,86.70
2022-11-28T05:42:13.301Z,86.62
2022-11-28T05:44:41.041Z,86.62
2022-11-28T05:47:08.865Z,86.68
2022-11-28T05:49:36.578Z,86.44
2022-11-28T05:52:04.788Z,86.21
2022-11-28T05:54:32.646Z,86.56
2022-11-28T05:57:00.600Z,87.60
2022-11-28T05:59:28.507Z,87.32
2022-11-28T06:01:56.369Z,86.98
2022-11-28T06:04:24.238Z,86.70
2022-11-28T06:06:52.026Z,87.37
2022-11-28T06:09:24.547Z,87.37
2022-11-28T06:11:53.567Z,87.43
2022-11-28T06:14:21.296Z,87.02
2022-11-28T06:16:49.286Z,86.89
2022-11-28T06:19:17.899Z,86.74
2022-11-28T06:21:45.857Z,87.12
2022-11-28T06:24:13.586Z,86.97
2022-11-28T06:26:41.378Z,86.86
2022-11-28T06:29:09.077Z,86.91
2022-11-28T06:31:37.288Z,87.02
2022-11-28T06:34:05.074Z,87.21
2022-11-28T06:36:33.458Z,87.70
2022-11-28T06:39:01.271Z,87.65
2022-11-28T06:41:29.211Z,87.79
2022-11-28T06:43:57.210Z,87.65
2022-11-28T06:46:25.106Z,87.79
2022-11-28T06:48:55.484Z,87.72
2022-11-28T06:51:23.323Z,87.41
2022-11-28T06:53:51.172Z,87.41
2022-11-28T06:56:20.430Z,87.50
2022-11-28T06:58:55.119Z,87.58
2022-11-28T07:01:24.932Z,87.45
2022-11-28T07:03:54.463Z,87.30
2022-11-28T07:06:24.470Z,87.31
2022-11-28T07:08:53.903Z,87.18
2022-11-28T07:11:24.606Z,87.55
2022-11-28T07:13:54.106Z,87.62
2022-11-28T07:16:35.443Z,88.45
2022-11-28T07:19:05.189Z,87.98
2022-11-28T07:21:37.063Z,88.13
2022-11-28T07:24:06.379Z,87.99
2022-11-28T07:26:38.390Z,87.59
2022-11-28T07:29:07.530Z,87.86
2022-11-28T07:31:40.258Z,87.67
2022-11-28T07:34:10.653Z,87.52
2022-11-28T07:36:47.375Z,87.27
2022-11-28T07:39:18.539Z,87.23
2022-11-28T07:41:51.063Z,87.06
2022-11-28T07:44:34.628Z,86.99
2022-11-28T07:47:03.030Z,86.88
2022-11-28T07:49:48.904Z,86.72
2022-11-28T07:52:21.065Z,86.68
2022-11-28T07:54:50.319Z,86.44
2022-11-28T07:57:19.243Z,85.72
2022-11-28T07:59:47.292Z,85.40
2022-11-28T08:02:15.942Z,84.92
2022-11-28T08:04:49.585Z,84.80
2022-11-28T08:07:20.767Z,84.38
2022-11-28T08:09:48.742Z,84.59
2022-11-28T08:12:17.239Z,84.64
2022-11-28T08:14:45.753Z,85.05
2022-11-28T08:17:13.765Z,83.82
2022-11-28T08:19:42.531Z,83.71
2022-11-28T08:22:12.040Z,83.28
2022-11-28T08:24:44.984Z,83.43
2022-11-28T08:27:14.227Z,82.53
2022-11-28T08:29:42.559Z,82.62
2022-11-28T08:32:11.005Z,81.60
2022-11-28T08:34:40.374Z,81.12
2022-11-28T08:37:08.290Z,79.94
2022-11-28T08:39:36.178Z,77.85
2022-11-28T08:42:04.191Z,77.48
2022-11-28T08:44:32.187Z,77.22
2022-11-28T08:47:00.414Z,76.90
2022-11-28T08:49:28.209Z,76.69
2022-11-28T08:51:55.964Z,76.29
2022-11-28T08:54:23.632Z,76.89
2022-11-28T08:56:51.420Z,76.89
2022-11-28T08:59:19.184Z,76.30
2022-11-28T09:01:47.060Z,76.15
2022-11-28T09:04:15.054Z,75.90
2022-11-28T09:06:42.770Z,74.32
2022-11-28T09:09:10.917Z,74.99
2022-11-28T09:11:39.119Z,74.86
2022-11-28T09:14:07.516Z,74.57
2022-11-28T09:16:37.430Z,74.71
2022-11-28T09:19:09.253Z,74.08
2022-11-28T09:21:37.212Z,73.91
2022-11-28T09:24:05.521Z,73.63
2022-11-28T09:26:35.793Z,73.21
2022-11-28T09:29:03.582Z,70.26
2022-11-28T09:31:31.379Z,68.69
2022-11-28T09:34:03.697Z,69.70
2022-11-28T09:36:51.005Z,69.70
2022-11-28T09:40:12.521Z,71.17
2022-11-28T09:42:51.554Z,66.59
2022-11-28T09:45:24.642Z,67.52
2022-11-28T09:47:58.018Z,69.07
2022-11-28T09:50:30.549Z,67.43
2022-11-28T09:53:09.368Z,64.58
2022-11-28T09:56:09.225Z,63.90
2022-11-28T10:20:57.453Z,56.66
2022-11-28T10:23:49.449Z,56.42
2022-11-28T10:26:36.547Z,55.50
2022-11-28T10:29:49.167Z,56.51
2022-11-28T10:32:50.963Z,55.70
2022-11-28T10:36:15.717Z,54.58
2022-11-28T10:39:32.718Z,53.90
2022-11-28T10:42:22.338Z,52.45
2022-11-28T10:45:48.296Z,53.30
2022-11-28T10:48:40.339Z,52.11
2022-11-28T10:51:24.651Z,51.71
2022-11-28T10:54:19.146Z,50.02
2022-11-28T10:57:10.021Z,49.01
2022-11-28T11:00:01.948Z,48.54
2022-11-28T11:02:40.867Z,47.63
2022-11-28T11:05:16.803Z,48.41
2022-11-28T11:08:00.620Z,49.02
2022-11-28T11:10:58.376Z,48.47
2022-11-28T11:13:55.885Z,46.64
2022-11-28T11:16:24.142Z,46.41
2022-11-28T11:18:55.875Z,46.51
2022-11-28T11:21:26.487Z,47.65
2022-11-28T11:24:15.818Z,48.52
2022-11-28T11:26:48.855Z,48.96
2022-11-28T11:29:35.519Z,49.41
2022-11-28T11:32:06.555Z,50.20
2022-11-28T11:34:42.956Z,49.50
2022-11-28T11:37:44.539Z,50.21
2022-11-28T11:40:25.755Z,50.86
2022-11-28T11:42:57.944Z,50.51
2022-11-28T11:45:38.019Z,51.61
2022-11-28T11:48:05.939Z,52.04
2022-11-28T11:50:33.743Z,52.29
2022-11-28T11:53:11.580Z,52.48
2022-11-28T11:55:52.559Z,52.85
2022-11-28T11:58:29.914Z,53.65
2022-11-28T12:01:37.509Z,53.89
2022-11-28T12:07:35.152Z,54.75
2022-11-28T12:10:57.314Z,54.85
2022-11-28T12:13:47.310Z,55.22
2022-11-28T12:17:00.611Z,55.52
2022-11-28T12:20:33.300Z,55.22
2022-11-28T12:23:36.420Z,55.91
2022-11-28T12:27:39.399Z,56.10
2022-11-28T12:30:24.560Z,56.49
2022-11-28T12:33:23.575Z,57.09
2022-11-28T12:36:13.223Z,57.14
2022-11-28T12:39:00.351Z,57.48
2022-11-28T12:41:52.204Z,57.48
2022-11-28T12:44:36.010Z,57.57
2022-11-28T12:47:36.008Z,58.15
2022-11-28T12:50:26.656Z,58.13
2022-11-28T12:53:17.028Z,58.30
2022-11-28T12:56:03.575Z,58.19
2022-11-28T12:58:43.838Z,58.37
2022-11-28T13:01:37.769Z,58.98
2022-11-28T13:04:57.852Z,59.14
2022-11-28T13:07:40.965Z,59.31
2022-11-28T13:10:47.269Z,59.57
2022-11-28T13:13:23.941Z,59.54
2022-11-28T13:16:08.082Z,60.09
2022-11-28T13:18:48.787Z,60.66
2022-11-28T13:21:37.730Z,60.74
2022-11-28T13:24:18.340Z,60.85
2022-11-28T13:27:00.412Z,61.16
2022-11-28T13:29:48.019Z,61.43
2022-11-28T13:32:35.478Z,61.30
2022-11-28T14:13:48.180Z,64.22
2022-11-28T14:16:39.604Z,64.42
2022-11-28T14:19:18.234Z,64.44
2022-11-28T14:22:00.622Z,64.33
2022-11-28T14:24:49.429Z,64.12
2022-11-28T14:27:29.254Z,64.66
2022-11-28T14:29:58.831Z,64.58
2022-11-28T14:32:35.695Z,64.71
2022-11-28T14:35:06.967Z,64.70
2022-11-28T14:37:48.439Z,64.37
2022-11-28T14:40:52.387Z,64.80
2022-11-28T14:43:30.979Z,64.63
2022-11-28T14:46:22.297Z,64.84
2022-11-28T14:49:15.192Z,64.91
2022-11-28T14:52:37.231Z,64.61
2022-11-28T14:55:18.376Z,64.59
2022-11-28T14:58:03.052Z,64.50
2022-11-28T15:00:47.247Z,64.61
2022-11-28T15:03:55.012Z,64.76
2022-11-28T15:06:32.033Z,64.81
2022-11-28T15:09:12.906Z,64.33
2022-11-28T15:11:58.765Z,63.88
2022-11-28T15:14:28.964Z,64.30
2022-11-28T15:17:02.117Z,64.49
2022-11-28T15:19:38.549Z,64.53
2022-11-28T15:22:06.412Z,64.48
2022-11-28T15:24:37.521Z,64.55
2022-11-28T15:27:26.206Z,64.35
2022-11-28T15:29:57.383Z,64.80
2022-11-28T15:32:27.625Z,64.73
2022-11-28T15:35:00.925Z,64.89
2022-11-28T15:37:32.354Z,64.90
2022-11-28T15:40:04.338Z,65.02
2022-11-28T15:42:35.067Z,64.95
2022-11-28T15:45:11.098Z,65.30
2022-11-28T15:47:40.032Z,65.48
2022-11-28T15:50:18.311Z,65.67
2022-11-28T15:52:58.451Z,65.70
2022-11-28T15:55:30.654Z,65.78
2022-11-28T15:58:20.011Z,66.05
2022-11-28T16:00:56.482Z,66.89
2022-11-28T16:03:28.122Z,66.44
2022-11-28T16:05:58.342Z,66.52
2022-11-28T16:08:34.622Z,67.02
2022-11-28T16:11:05.121Z,66.88
2022-11-28T16:13:33.635Z,66.99
2022-11-28T16:16:04.348Z,66.85
2022-11-28T16:18:32.537Z,66.94
2022-11-28T16:21:01.854Z,66.83
2022-11-28T16:23:35.398Z,66.80
2022-11-28T16:26:08.229Z,66.81
2022-11-28T16:28:38.951Z,66.82
2022-11-28T16:31:23.772Z,66.96
2022-11-28T16:33:52.157Z,67.26
2022-11-28T16:36:24.860Z,66.92
2022-11-28T16:39:04.480Z,67.13
2022-11-28T16:41:33.087Z,66.90
2022-11-28T16:44:05.114Z,66.88
2022-11-28T16:46:38.168Z,66.85
2022-11-28T16:49:33.696Z,66.82
2022-11-28T16:52:40.824Z,67.38
2022-11-28T16:55:40.904Z,67.39
2022-11-28T16:58:15.495Z,67.30
2022-11-28T17:00:59.310Z,67.20
2022-11-28T17:03:44.647Z,67.28
2022-11-28T17:06:17.091Z,67.53
2022-11-28T17:08:44.924Z,67.62
2022-11-28T17:11:15.215Z,67.63
2022-11-28T17:13:43.247Z,67.92
2022-11-28T17:16:24.096Z,67.95
2022-11-28T17:18:52.233Z,68.01
2022-11-28T17:21:33.473Z,68.03
2022-11-28T17:24:01.911Z,68.39
2022-11-28T17:26:29.751Z,68.63
2022-11-28T17:28:59.180Z,68.89
2022-11-28T17:31:26.961Z,69.11
2022-11-28T17:33:54.629Z,69.14
2022-11-28T17:36:22.379Z,69.37
2022-11-28T17:38:50.090Z,69.61
2022-11-28T17:41:18.279Z,69.83
2022-11-28T17:43:45.965Z,69.65
2022-11-28T17:46:14.511Z,69.98
2022-11-28T17:48:42.365Z,70.11
2022-11-28T17:51:10.718Z,70.06
2022-11-28T17:53:38.645Z,70.10
2022-11-28T17:56:06.717Z,70.12
2022-11-28T17:58:34.419Z,70.23
2022-11-28T18:01:02.397Z,70.34
2022-11-28T18:03:30.207Z,70.41
2022-11-28T18:05:58.163Z,70.38
2022-11-28T18:08:26.007Z,70.71
2022-11-28T18:11:06.683Z,71.34
2022-11-28T18:13:34.731Z,70.74
2022-11-28T18:16:03.383Z,70.68
2022-11-28T18:18:32.165Z,70.75
2022-11-28T18:21:01.044Z,71.00
2022-11-28T18:23:29.043Z,71.10
2022-11-28T18:25:57.580Z,70.79
2022-11-28T18:28:25.390Z,71.91
2022-11-28T18:30:53.893Z,71.36
2022-11-28T18:33:21.621Z,71.50
2022-11-28T18:35:49.460Z,71.74
2022-11-28T18:38:17.237Z,71.79
2022-11-28T18:40:45.085Z,71.90
2022-11-28T18:43:12.898Z,72.33
2022-11-28T18:45:41.032Z,72.08
2022-11-28T18:48:08.717Z,72.29
2022-11-28T18:50:36.432Z,72.34
2022-11-28T18:53:04.467Z,72.36
2022-11-28T18:55:32.619Z,72.71
2022-11-28T18:58:00.478Z,72.33
2022-11-28T19:00:28.651Z,72.41
2022-11-28T19:02:56.402Z,72.56
2022-11-28T19:05:24.128Z,72.44
2022-11-28T19:07:52.683Z,72.65
2022-11-28T19:10:20.977Z,72.70
2022-11-28T19:12:48.778Z,72.70
2022-11-28T19:15:17.139Z,72.62
2022-11-28T19:17:45.102Z,72.74
2022-11-28T19:20:14.320Z,72.51
2022-11-28T19:22:42.006Z,72.36
2022-11-28T19:25:09.781Z,72.51
2022-11-28T19:27:37.568Z,72.23
2022-11-28T19:30:06.432Z,72.14
2022-11-28T19:32:36.291Z,72.11
2022-11-28T19:35:04.706Z,72.04
2022-11-28T19:37:32.496Z,72.21
2022-11-28T19:40:02.799Z,72.17
2022-11-28T19:42:32.015Z,72.34
2022-11-28T19:44:59.698Z,72.33
2022-11-28T19:47:28.955Z,72.39
2022-11-28T19:49:57.028Z,73.84
2022-11-28T19:52:25.206Z,72.97
2022-11-28T19:54:52.996Z,72.80
2022-11-28T19:57:20.862Z,72.91
2022-11-28T19:59:51.156Z,72.82
2022-11-28T20:02:21.639Z,72.82
2022-11-28T20:04:49.554Z,73.05
2022-11-28T20:07:17.420Z,73.15
2022-11-28T20:09:45.552Z,73.20
2022-11-28T20:12:15.809Z,73.24
2022-11-28T20:14:43.521Z,73.42
2022-11-28T20:17:12.145Z,73.50
2022-11-28T20:19:39.840Z,73.58
2022-11-28T20:22:07.903Z,73.77
2022-11-28T20:24:35.895Z,73.75
2022-11-28T20:27:03.680Z,73.85
2022-11-28T20:29:31.629Z,74.01
2022-11-28T20:31:59.532Z,74.13
2022-11-28T20:34:27.622Z,73.97
2022-11-28T20:36:55.744Z,74.14
2022-11-28T20:39:24.323Z,74.23
2022-11-28T20:41:52.091Z,74.32
2022-11-28T20:44:20.324Z,74.60
2022-11-28T20:46:49.836Z,74.65
2022-11-28T20:49:18.354Z,74.74
2022-11-28T20:51:46.164Z,74.99
2022-11-28T20:54:14.358Z,74.94
2022-11-28T20:57:19.250Z,75.12
2022-11-28T20:59:32.238Z,75.13
2022-11-28T21:02:00.007Z,75.37
2022-11-28T21:04:27.744Z,75.28
2022-11-28T21:06:55.917Z,75.19
2022-11-28T21:09:23.783Z,75.35
2022-11-28T21:11:57.592Z,75.37
2022-11-28T21:14:27.456Z,75.33
2022-11-28T21:16:56.185Z,75.14
2022-11-28T21:19:24.000Z,74.98
2022-11-28T21:21:51.846Z,75.11
2022-11-28T21:24:19.978Z,75.14
2022-11-28T21:26:52.963Z,75.11
2022-11-28T21:29:22.921Z,75.28
2022-11-28T21:31:50.895Z,75.40
2022-11-28T21:34:19.222Z,75.27
2022-11-28T21:36:47.390Z,75.52
2022-11-28T21:39:19.808Z,75.54
2022-11-28T21:41:48.032Z,75.71
2022-11-28T21:44:15.869Z,75.63
2022-11-28T21:46:43.582Z,75.67
2022-11-28T21:49:12.686Z,75.70
2022-11-28T21:51:40.749Z,75.96
2022-11-28T21:54:11.083Z,76.66
2022-11-28T21:56:39.085Z,76.49
2022-11-28T21:59:06.884Z,76.77
2022-11-28T22:01:35.120Z,76.70
2022-11-28T22:04:04.650Z,76.70
2022-11-28T22:06:32.941Z,76.78
2022-11-28T22:09:08.791Z,77.06
2022-11-28T22:11:38.829Z,77.12
2022-11-28T22:14:06.828Z,77.57
2022-11-28T22:16:35.301Z,77.71
2022-11-28T22:19:04.233Z,77.97
2022-11-28T22:24:21.306Z,78.28
2022-11-28T22:26:50.184Z,78.22
2022-11-28T22:29:19.161Z,78.43
2022-11-28T22:31:47.047Z,78.44
2022-11-28T22:34:15.267Z,78.53
2022-11-28T22:36:43.170Z,78.68
2022-11-28T22:39:11.706Z,78.77
2022-11-28T22:41:39.957Z,78.92
2022-11-28T22:44:11.558Z,79.03
2022-11-28T22:46:39.862Z,78.86
2022-11-28T22:49:10.541Z,79.90
2022-11-28T22:51:39.212Z,79.56
2022-11-28T22:54:07.483Z,81.36
2022-11-28T22:56:35.279Z,81.58
2022-11-28T22:59:05.075Z,81.09
2022-11-28T23:01:35.279Z,80.23
2022-11-28T23:04:03.319Z,79.95
2022-11-28T23:06:34.314Z,79.85
2022-11-28T23:09:06.464Z,79.80
2022-11-28T23:11:36.955Z,79.86
2022-11-28T23:14:06.434Z,79.77
2022-11-28T23:16:37.612Z,79.61
2022-11-28T23:19:13.671Z,79.70
2022-11-28T23:21:43.652Z,79.64
2022-11-28T23:24:14.604Z,79.71
2022-11-28T23:26:43.846Z,80.16
2022-11-28T23:29:13.942Z,81.66
2022-11-28T23:31:44.303Z,84.90
2022-11-28T23:34:12.433Z,84.32
2022-11-28T23:36:43.102Z,82.93
2022-11-28T23:39:15.710Z,82.11
2022-11-28T23:41:43.952Z,81.63
2022-11-28T23:44:13.407Z,81.62
2022-11-28T23:46:41.988Z,81.68
2022-11-28T23:49:10.649Z,81.59
2022-11-28T23:51:40.495Z,81.84
2022-11-28T23:54:10.198Z,82.31
2022-11-28T23:56:40.242Z,81.95
2022-11-28T23:59:10.507Z,82.54
